sensor_id;sensor_type;location;lat;lon;timestamp;P1;durP1;ratioP1;P2;durP2;ratioP2
53263;SDS011;39153;52.680;6.172;2023-01-04T00:00:13;11.00;;;3.00;;
53263;SDS011;39153;52.680;6.172;2023-01-04T00:02:40;8.27;;;3.10;;
53263;SDS011;39153;52.680;6.172;2023-01-04T00:05:06;8.20;;;2.90;;
53263;SDS011;39153;52.680;6.172;2023-01-04T00:07:32;9.52;;;3.17;;
53263;SDS011;39153;52.680;6.172;2023-01-04T00:09:57;8.30;;;2.90;;
53263;SDS011;39153;52.680;6.172;2023-01-04T00:12:23;8.43;;;3.00;;
53263;SDS011;39153;52.680;6.172;2023-01-04T00:14:49;8.50;;;3.10;;
53263;SDS011;39153;52.680;6.172;2023-01-04T00:17:14;9.63;;;3.25;;
53263;SDS011;39153;52.680;6.172;2023-01-04T00:19:40;9.48;;;3.60;;
53263;SDS011;39153;52.680;6.172;2023-01-04T00:22:06;10.32;;;3.47;;
53263;SDS011;39153;52.680;6.172;2023-01-04T00:24:31;10.82;;;3.63;;
53263;SDS011;39153;52.680;6.172;2023-01-04T00:26:57;8.00;;;3.42;;
53263;SDS011;39153;52.680;6.172;2023-01-04T00:29:23;9.38;;;3.58;;
53263;SDS011;39153;52.680;6.172;2023-01-04T00:31:48;12.85;;;3.17;;
53263;SDS011;39153;52.680;6.172;2023-01-04T00:34:15;8.30;;;3.10;;
53263;SDS011;39153;52.680;6.172;2023-01-04T00:36:41;10.23;;;4.05;;
53263;SDS011;39153;52.680;6.172;2023-01-04T00:39:08;10.85;;;3.88;;
53263;SDS011;39153;52.680;6.172;2023-01-04T00:41:40;10.43;;;3.53;;
53263;SDS011;39153;52.680;6.172;2023-01-04T00:44:08;10.15;;;3.67;;
53263;SDS011;39153;52.680;6.172;2023-01-04T00:46:34;11.75;;;3.47;;
53263;SDS011;39153;52.680;6.172;2023-01-04T00:49:01;6.95;;;3.50;;
53263;SDS011;39153;52.680;6.172;2023-01-04T00:51:28;9.00;;;3.58;;
53263;SDS011;39153;52.680;6.172;2023-01-04T00:53:54;14.43;;;3.92;;
53263;SDS011;39153;52.680;6.172;2023-01-04T00:56:21;10.80;;;3.65;;
53263;SDS011;39153;52.680;6.172;2023-01-04T00:58:47;12.55;;;4.07;;
53263;SDS011;39153;52.680;6.172;2023-01-04T01:01:12;11.68;;;4.03;;
53263;SDS011;39153;52.680;6.172;2023-01-04T01:03:38;11.63;;;4.35;;
53263;SDS011;39153;52.680;6.172;2023-01-04T01:06:05;8.43;;;3.40;;
53263;SDS011;39153;52.680;6.172;2023-01-04T01:08:32;13.40;;;4.25;;
53263;SDS011;39153;52.680;6.172;2023-01-04T01:11:06;12.00;;;4.57;;
53263;SDS011;39153;52.680;6.172;2023-01-04T01:13:33;14.30;;;4.43;;
53263;SDS011;39153;52.680;6.172;2023-01-04T01:16:03;8.15;;;3.40;;
53263;SDS011;39153;52.680;6.172;2023-01-04T01:18:34;9.73;;;3.65;;
53263;SDS011;39153;52.680;6.172;2023-01-04T01:21:08;9.05;;;3.63;;
53263;SDS011;39153;52.680;6.172;2023-01-04T01:26:02;8.77;;;3.80;;
53263;SDS011;39153;52.680;6.172;2023-01-04T01:28:30;8.02;;;4.00;;
53263;SDS011;39153;52.680;6.172;2023-01-04T01:30:57;8.65;;;4.10;;
53263;SDS011;39153;52.680;6.172;2023-01-04T01:33:25;9.05;;;4.25;;
53263;SDS011;39153;52.680;6.172;2023-01-04T01:35:51;9.65;;;3.92;;
53263;SDS011;39153;52.680;6.172;2023-01-04T01:38:17;11.20;;;4.13;;
53263;SDS011;39153;52.680;6.172;2023-01-04T01:40:43;7.95;;;4.00;;
53263;SDS011;39153;52.680;6.172;2023-01-04T01:43:16;9.13;;;4.47;;
53263;SDS011;39153;52.680;6.172;2023-01-04T01:45:42;6.28;;;3.25;;
53263;SDS011;39153;52.680;6.172;2023-01-04T01:48:14;7.05;;;3.85;;
53263;SDS011;39153;52.680;6.172;2023-01-04T01:53:40;7.85;;;3.95;;
53263;SDS011;39153;52.680;6.172;2023-01-04T01:56:08;10.38;;;3.80;;
53263;SDS011;39153;52.680;6.172;2023-01-04T01:58:36;5.60;;;3.58;;
53263;SDS011;39153;52.680;6.172;2023-01-04T02:01:05;11.07;;;4.05;;
53263;SDS011;39153;52.680;6.172;2023-01-04T02:03:36;5.88;;;3.20;;
53263;SDS011;39153;52.680;6.172;2023-01-04T02:06:05;7.70;;;3.55;;
53263;SDS011;39153;52.680;6.172;2023-01-04T02:08:37;8.35;;;3.10;;
53263;SDS011;39153;52.680;6.172;2023-01-04T02:11:05;7.10;;;3.10;;
53263;SDS011;39153;52.680;6.172;2023-01-04T02:13:31;7.05;;;3.38;;
53263;SDS011;39153;52.680;6.172;2023-01-04T02:25:15;5.95;;;2.60;;
53263;SDS011;39153;52.680;6.172;2023-01-04T02:28:07;5.75;;;2.25;;
53263;SDS011;39153;52.680;6.172;2023-01-04T02:30:49;4.88;;;2.40;;
53263;SDS011;39153;52.680;6.172;2023-01-04T02:33:46;3.87;;;2.17;;
53263;SDS011;39153;52.680;6.172;2023-01-04T02:45:12;4.15;;;2.20;;
53263;SDS011;39153;52.680;6.172;2023-01-04T02:47:42;3.97;;;2.20;;
53263;SDS011;39153;52.680;6.172;2023-01-04T02:50:49;4.43;;;2.20;;
53263;SDS011;39153;52.680;6.172;2023-01-04T02:53:25;4.65;;;2.33;;
53263;SDS011;39153;52.680;6.172;2023-01-04T02:56:14;3.92;;;2.60;;
53263;SDS011;39153;52.680;6.172;2023-01-04T03:05:34;5.65;;;3.70;;
53263;SDS011;39153;52.680;6.172;2023-01-04T03:08:26;6.88;;;3.97;;
53263;SDS011;39153;52.680;6.172;2023-01-04T03:10:58;6.18;;;4.40;;
53263;SDS011;39153;52.680;6.172;2023-01-04T03:13:26;6.13;;;4.90;;
53263;SDS011;39153;52.680;6.172;2023-01-04T03:16:02;6.85;;;5.18;;
53263;SDS011;39153;52.680;6.172;2023-01-04T03:18:34;6.60;;;5.28;;
53263;SDS011;39153;52.680;6.172;2023-01-04T03:21:04;9.15;;;6.07;;
53263;SDS011;39153;52.680;6.172;2023-01-04T03:23:34;10.02;;;6.35;;
53263;SDS011;39153;52.680;6.172;2023-01-04T03:26:38;9.82;;;6.15;;
53263;SDS011;39153;52.680;6.172;2023-01-04T03:32:28;7.32;;;5.85;;
53263;SDS011;39153;52.680;6.172;2023-01-04T03:35:23;9.20;;;6.13;;
53263;SDS011;39153;52.680;6.172;2023-01-04T03:40:54;8.90;;;6.55;;
53263;SDS011;39153;52.680;6.172;2023-01-04T03:43:53;8.73;;;6.78;;
53263;SDS011;39153;52.680;6.172;2023-01-04T03:47:03;9.20;;;6.82;;
53263;SDS011;39153;52.680;6.172;2023-01-04T03:49:59;11.55;;;7.55;;
53263;SDS011;39153;52.680;6.172;2023-01-04T03:52:33;9.65;;;7.55;;
53263;SDS011;39153;52.680;6.172;2023-01-04T03:55:01;11.05;;;7.72;;
53263;SDS011;39153;52.680;6.172;2023-01-04T03:57:30;9.68;;;8.38;;
53263;SDS011;39153;52.680;6.172;2023-01-04T04:00:02;9.93;;;8.18;;
53263;SDS011;39153;52.680;6.172;2023-01-04T04:02:33;10.38;;;7.90;;
53263;SDS011;39153;52.680;6.172;2023-01-04T04:04:59;9.88;;;8.40;;
53263;SDS011;39153;52.680;6.172;2023-01-04T04:07:43;11.43;;;9.23;;
53263;SDS011;39153;52.680;6.172;2023-01-04T04:10:28;13.30;;;10.48;;
53263;SDS011;39153;52.680;6.172;2023-01-04T04:12:53;13.95;;;9.95;;
53263;SDS011;39153;52.680;6.172;2023-01-04T04:15:19;12.73;;;10.90;;
53263;SDS011;39153;52.680;6.172;2023-01-04T04:17:45;13.60;;;10.98;;
53263;SDS011;39153;52.680;6.172;2023-01-04T04:20:10;13.60;;;10.88;;
53263;SDS011;39153;52.680;6.172;2023-01-04T04:22:37;14.68;;;10.68;;
53263;SDS011;39153;52.680;6.172;2023-01-04T04:25:03;14.07;;;11.02;;
53263;SDS011;39153;52.680;6.172;2023-01-04T04:27:29;13.43;;;11.02;;
53263;SDS011;39153;52.680;6.172;2023-01-04T04:29:55;13.38;;;10.80;;
53263;SDS011;39153;52.680;6.172;2023-01-04T04:32:20;14.85;;;11.70;;
53263;SDS011;39153;52.680;6.172;2023-01-04T04:34:46;14.10;;;11.75;;
53263;SDS011;39153;52.680;6.172;2023-01-04T04:37:12;15.45;;;11.48;;
53263;SDS011;39153;52.680;6.172;2023-01-04T04:39:38;15.70;;;12.85;;
53263;SDS011;39153;52.680;6.172;2023-01-04T04:42:03;16.10;;;12.32;;
53263;SDS011;39153;52.680;6.172;2023-01-04T04:44:29;16.02;;;13.18;;
53263;SDS011;39153;52.680;6.172;2023-01-04T04:46:55;17.55;;;13.52;;
53263;SDS011;39153;52.680;6.172;2023-01-04T04:49:20;15.90;;;12.40;;
53263;SDS011;39153;52.680;6.172;2023-01-04T04:51:46;17.80;;;14.10;;
53263;SDS011;39153;52.680;6.172;2023-01-04T04:54:16;17.17;;;13.48;;
53263;SDS011;39153;52.680;6.172;2023-01-04T04:56:43;18.40;;;13.68;;
53263;SDS011;39153;52.680;6.172;2023-01-04T04:59:09;17.88;;;13.65;;
53263;SDS011;39153;52.680;6.172;2023-01-04T05:01:35;18.33;;;14.07;;
53263;SDS011;39153;52.680;6.172;2023-01-04T05:04:01;16.73;;;13.90;;
53263;SDS011;39153;52.680;6.172;2023-01-04T05:06:27;18.50;;;13.95;;
53263;SDS011;39153;52.680;6.172;2023-01-04T05:08:53;18.35;;;14.80;;
53263;SDS011;39153;52.680;6.172;2023-01-04T05:11:18;18.08;;;14.25;;
53263;SDS011;39153;52.680;6.172;2023-01-04T05:14:04;16.25;;;13.88;;
53263;SDS011;39153;52.680;6.172;2023-01-04T05:16:30;17.33;;;13.98;;
53263;SDS011;39153;52.680;6.172;2023-01-04T05:18:55;17.73;;;13.18;;
53263;SDS011;39153;52.680;6.172;2023-01-04T05:21:21;17.73;;;13.15;;
53263;SDS011;39153;52.680;6.172;2023-01-04T05:23:47;15.98;;;12.88;;
53263;SDS011;39153;52.680;6.172;2023-01-04T05:26:12;15.85;;;11.90;;
53263;SDS011;39153;52.680;6.172;2023-01-04T05:28:38;14.18;;;11.23;;
53263;SDS011;39153;52.680;6.172;2023-01-04T05:31:04;14.05;;;11.63;;
53263;SDS011;39153;52.680;6.172;2023-01-04T05:33:30;14.32;;;11.07;;
53263;SDS011;39153;52.680;6.172;2023-01-04T05:35:57;12.90;;;10.60;;
53263;SDS011;39153;52.680;6.172;2023-01-04T05:38:24;15.75;;;10.00;;
53263;SDS011;39153;52.680;6.172;2023-01-04T05:40:50;18.45;;;11.05;;
53263;SDS011;39153;52.680;6.172;2023-01-04T05:43:17;14.48;;;10.43;;
53263;SDS011;39153;52.680;6.172;2023-01-04T05:45:48;12.68;;;9.85;;
53263;SDS011;39153;52.680;6.172;2023-01-04T05:48:15;15.18;;;9.55;;
53263;SDS011;39153;52.680;6.172;2023-01-04T05:50:41;12.77;;;8.90;;
53263;SDS011;39153;52.680;6.172;2023-01-04T05:53:07;13.10;;;9.15;;
53263;SDS011;39153;52.680;6.172;2023-01-04T05:55:33;15.20;;;9.65;;
53263;SDS011;39153;52.680;6.172;2023-01-04T05:57:59;14.90;;;9.43;;
53263;SDS011;39153;52.680;6.172;2023-01-04T06:00:25;13.45;;;10.23;;
53263;SDS011;39153;52.680;6.172;2023-01-04T06:02:50;14.50;;;9.80;;
53263;SDS011;39153;52.680;6.172;2023-01-04T06:05:16;15.52;;;10.15;;
53263;SDS011;39153;52.680;6.172;2023-01-04T06:07:42;15.43;;;9.65;;
53263;SDS011;39153;52.680;6.172;2023-01-04T06:10:09;17.10;;;10.02;;
53263;SDS011;39153;52.680;6.172;2023-01-04T06:12:36;12.65;;;9.82;;
53263;SDS011;39153;52.680;6.172;2023-01-04T06:15:03;11.88;;;8.65;;
53263;SDS011;39153;52.680;6.172;2023-01-04T06:17:30;12.15;;;8.38;;
53263;SDS011;39153;52.680;6.172;2023-01-04T06:19:56;9.98;;;7.18;;
53263;SDS011;39153;52.680;6.172;2023-01-04T06:22:21;13.15;;;7.43;;
53263;SDS011;39153;52.680;6.172;2023-01-04T06:24:47;10.50;;;7.05;;
53263;SDS011;39153;52.680;6.172;2023-01-04T06:27:13;11.98;;;7.32;;
53263;SDS011;39153;52.680;6.172;2023-01-04T06:29:39;9.63;;;6.47;;
53263;SDS011;39153;52.680;6.172;2023-01-04T06:32:04;9.10;;;5.93;;
53263;SDS011;39153;52.680;6.172;2023-01-04T06:34:30;9.27;;;6.25;;
53263;SDS011;39153;52.680;6.172;2023-01-04T06:36:56;8.88;;;6.22;;
53263;SDS011;39153;52.680;6.172;2023-01-04T06:39:21;10.10;;;6.15;;
53263;SDS011;39153;52.680;6.172;2023-01-04T06:41:47;9.05;;;5.88;;
53263;SDS011;39153;52.680;6.172;2023-01-04T06:44:13;8.20;;;6.10;;
53263;SDS011;39153;52.680;6.172;2023-01-04T06:46:38;7.40;;;5.45;;
53263;SDS011;39153;52.680;6.172;2023-01-04T06:49:05;8.93;;;5.20;;
53263;SDS011;39153;52.680;6.172;2023-01-04T06:51:31;8.13;;;5.22;;
53263;SDS011;39153;52.680;6.172;2023-01-04T06:53:56;8.07;;;5.53;;
53263;SDS011;39153;52.680;6.172;2023-01-04T06:56:22;6.53;;;4.65;;
53263;SDS011;39153;52.680;6.172;2023-01-04T06:58:48;7.38;;;5.65;;
53263;SDS011;39153;52.680;6.172;2023-01-04T07:01:13;9.52;;;5.72;;
53263;SDS011;39153;52.680;6.172;2023-01-04T07:03:39;7.00;;;5.25;;
53263;SDS011;39153;52.680;6.172;2023-01-04T07:06:05;8.82;;;5.72;;
53263;SDS011;39153;52.680;6.172;2023-01-04T07:08:32;8.15;;;5.75;;
53263;SDS011;39153;52.680;6.172;2023-01-04T07:10:58;8.00;;;6.03;;
53263;SDS011;39153;52.680;6.172;2023-01-04T07:13:24;9.07;;;6.05;;
53263;SDS011;39153;52.680;6.172;2023-01-04T07:15:50;8.05;;;5.85;;
53263;SDS011;39153;52.680;6.172;2023-01-04T07:18:16;9.43;;;6.15;;
53263;SDS011;39153;52.680;6.172;2023-01-04T07:20:42;10.32;;;6.35;;
53263;SDS011;39153;52.680;6.172;2023-01-04T07:23:08;8.55;;;5.80;;
53263;SDS011;39153;52.680;6.172;2023-01-04T07:25:33;9.68;;;6.10;;
53263;SDS011;39153;52.680;6.172;2023-01-04T07:27:59;9.93;;;6.00;;
53263;SDS011;39153;52.680;6.172;2023-01-04T07:30:25;10.38;;;6.50;;
53263;SDS011;39153;52.680;6.172;2023-01-04T07:32:52;10.82;;;8.10;;
53263;SDS011;39153;52.680;6.172;2023-01-04T07:35:18;11.98;;;7.70;;
53263;SDS011;39153;52.680;6.172;2023-01-04T07:37:44;12.55;;;8.20;;
53263;SDS011;39153;52.680;6.172;2023-01-04T07:40:10;13.60;;;7.72;;
53263;SDS011;39153;52.680;6.172;2023-01-04T07:42:36;13.30;;;8.63;;
53263;SDS011;39153;52.680;6.172;2023-01-04T07:45:03;12.15;;;8.43;;
53263;SDS011;39153;52.680;6.172;2023-01-04T07:47:29;14.95;;;8.43;;
53263;SDS011;39153;52.680;6.172;2023-01-04T07:49:55;13.18;;;9.23;;
53263;SDS011;39153;52.680;6.172;2023-01-04T07:52:21;14.23;;;9.93;;
53263;SDS011;39153;52.680;6.172;2023-01-04T07:54:47;14.40;;;9.43;;
53263;SDS011;39153;52.680;6.172;2023-01-04T07:57:12;13.20;;;9.80;;
53263;SDS011;39153;52.680;6.172;2023-01-04T07:59:38;15.93;;;9.40;;
53263;SDS011;39153;52.680;6.172;2023-01-04T08:02:04;15.25;;;9.25;;
53263;SDS011;39153;52.680;6.172;2023-01-04T08:04:30;13.27;;;9.07;;
53263;SDS011;39153;52.680;6.172;2023-01-04T08:06:56;12.57;;;8.45;;
53263;SDS011;39153;52.680;6.172;2023-01-04T08:09:21;13.18;;;8.98;;
53263;SDS011;39153;52.680;6.172;2023-01-04T08:11:47;15.18;;;8.85;;
53263;SDS011;39153;52.680;6.172;2023-01-04T08:14:13;14.07;;;8.90;;
53263;SDS011;39153;52.680;6.172;2023-01-04T08:16:39;14.55;;;9.13;;
53263;SDS011;39153;52.680;6.172;2023-01-04T08:21:42;12.00;;;8.63;;
53263;SDS011;39153;52.680;6.172;2023-01-04T08:24:12;11.98;;;7.85;;
53263;SDS011;39153;52.680;6.172;2023-01-04T08:26:40;12.40;;;8.32;;
53263;SDS011;39153;52.680;6.172;2023-01-04T08:29:06;15.02;;;8.70;;
53263;SDS011;39153;52.680;6.172;2023-01-04T08:31:32;13.95;;;7.35;;
53263;SDS011;39153;52.680;6.172;2023-01-04T08:34:01;17.77;;;8.68;;
53263;SDS011;39153;52.680;6.172;2023-01-04T08:36:28;12.82;;;8.60;;
53263;SDS011;39153;52.680;6.172;2023-01-04T08:38:57;13.30;;;8.52;;
53263;SDS011;39153;52.680;6.172;2023-01-04T08:41:29;10.45;;;8.15;;
53263;SDS011;39153;52.680;6.172;2023-01-04T08:43:55;10.60;;;7.28;;
53263;SDS011;39153;52.680;6.172;2023-01-04T08:46:21;10.68;;;7.85;;
53263;SDS011;39153;52.680;6.172;2023-01-04T08:48:47;12.82;;;8.68;;
53263;SDS011;39153;52.680;6.172;2023-01-04T08:51:13;13.65;;;8.57;;
53263;SDS011;39153;52.680;6.172;2023-01-04T08:53:40;11.95;;;8.70;;
53263;SDS011;39153;52.680;6.172;2023-01-04T08:56:07;14.93;;;8.52;;
53263;SDS011;39153;52.680;6.172;2023-01-04T08:58:34;14.40;;;8.90;;
53263;SDS011;39153;52.680;6.172;2023-01-04T09:01:02;10.80;;;8.10;;
53263;SDS011;39153;52.680;6.172;2023-01-04T09:03:29;12.52;;;8.98;;
53263;SDS011;39153;52.680;6.172;2023-01-04T09:06:05;11.63;;;7.55;;
53263;SDS011;39153;52.680;6.172;2023-01-04T09:08:33;11.27;;;6.97;;
53263;SDS011;39153;52.680;6.172;2023-01-04T09:11:07;9.95;;;6.75;;
53263;SDS011;39153;52.680;6.172;2023-01-04T09:13:34;12.30;;;6.53;;
53263;SDS011;39153;52.680;6.172;2023-01-04T09:16:01;7.88;;;5.55;;
53263;SDS011;39153;52.680;6.172;2023-01-04T09:18:28;8.32;;;5.18;;
53263;SDS011;39153;52.680;6.172;2023-01-04T09:20:54;7.20;;;4.82;;
53263;SDS011;39153;52.680;6.172;2023-01-04T09:23:20;6.55;;;4.82;;
53263;SDS011;39153;52.680;6.172;2023-01-04T09:25:46;6.63;;;3.72;;
53263;SDS011;39153;52.680;6.172;2023-01-04T09:28:13;5.57;;;3.47;;
53263;SDS011;39153;52.680;6.172;2023-01-04T09:30:39;5.15;;;3.30;;
53263;SDS011;39153;52.680;6.172;2023-01-04T09:33:05;4.40;;;3.20;;
53263;SDS011;39153;52.680;6.172;2023-01-04T09:35:30;5.72;;;3.20;;
53263;SDS011;39153;52.680;6.172;2023-01-04T09:37:57;5.43;;;3.00;;
53263;SDS011;39153;52.680;6.172;2023-01-04T09:40:33;5.45;;;2.60;;
53263;SDS011;39153;52.680;6.172;2023-01-04T09:43:14;3.78;;;2.30;;
53263;SDS011;39153;52.680;6.172;2023-01-04T09:45:44;3.90;;;2.40;;
53263;SDS011;39153;52.680;6.172;2023-01-04T09:48:18;3.67;;;2.30;;
53263;SDS011;39153;52.680;6.172;2023-01-04T09:50:58;3.70;;;2.42;;
53263;SDS011;39153;52.680;6.172;2023-01-04T09:53:30;3.65;;;2.30;;
53263;SDS011;39153;52.680;6.172;2023-01-04T09:58:59;8.57;;;3.00;;
53263;SDS011;39153;52.680;6.172;2023-01-04T10:01:40;4.43;;;2.42;;
53263;SDS011;39153;52.680;6.172;2023-01-04T10:07:03;5.75;;;2.40;;
53263;SDS011;39153;52.680;6.172;2023-01-04T10:09:29;5.47;;;2.70;;
53263;SDS011;39153;52.680;6.172;2023-01-04T10:14:49;7.00;;;3.10;;
53263;SDS011;39153;52.680;6.172;2023-01-04T10:17:32;10.32;;;2.90;;
53263;SDS011;39153;52.680;6.172;2023-01-04T10:20:24;9.15;;;3.00;;
53263;SDS011;39153;52.680;6.172;2023-01-04T10:26:12;12.07;;;4.15;;
53263;SDS011;39153;52.680;6.172;2023-01-04T10:28:51;12.13;;;4.18;;
53263;SDS011;39153;52.680;6.172;2023-01-04T10:31:23;14.07;;;4.07;;
53263;SDS011;39153;52.680;6.172;2023-01-04T10:34:02;12.13;;;3.65;;
53263;SDS011;39153;52.680;6.172;2023-01-04T10:36:39;16.88;;;3.80;;
53263;SDS011;39153;52.680;6.172;2023-01-04T10:39:13;11.60;;;3.38;;
53263;SDS011;39153;52.680;6.172;2023-01-04T10:41:54;12.43;;;3.72;;
53263;SDS011;39153;52.680;6.172;2023-01-04T10:47:10;14.27;;;4.45;;
53263;SDS011;39153;52.680;6.172;2023-01-04T10:49:55;11.82;;;3.50;;
53263;SDS011;39153;52.680;6.172;2023-01-04T10:52:35;19.15;;;3.35;;
53263;SDS011;39153;52.680;6.172;2023-01-04T10:55:16;13.98;;;4.20;;
53263;SDS011;39153;52.680;6.172;2023-01-04T10:58:08;15.17;;;3.87;;
53263;SDS011;39153;52.680;6.172;2023-01-04T11:00:45;16.20;;;3.90;;
53263;SDS011;39153;52.680;6.172;2023-01-04T11:03:24;18.05;;;3.88;;
53263;SDS011;39153;52.680;6.172;2023-01-04T11:08:44;20.20;;;4.13;;
53263;SDS011;39153;52.680;6.172;2023-01-04T11:11:17;10.35;;;3.28;;
53263;SDS011;39153;52.680;6.172;2023-01-04T11:16:14;21.25;;;3.75;;
53263;SDS011;39153;52.680;6.172;2023-01-04T11:18:40;17.80;;;3.28;;
53263;SDS011;39153;52.680;6.172;2023-01-04T11:21:09;17.15;;;3.75;;
53263;SDS011;39153;52.680;6.172;2023-01-04T11:23:38;18.30;;;4.38;;
53263;SDS011;39153;52.680;6.172;2023-01-04T11:26:10;16.50;;;4.22;;
53263;SDS011;39153;52.680;6.172;2023-01-04T11:29:12;23.42;;;4.30;;
53263;SDS011;39153;52.680;6.172;2023-01-04T11:31:54;18.98;;;4.15;;
53263;SDS011;39153;52.680;6.172;2023-01-04T11:40:11;15.38;;;3.60;;
53263;SDS011;39153;52.680;6.172;2023-01-04T11:42:43;19.05;;;4.30;;
53263;SDS011;39153;52.680;6.172;2023-01-04T11:45:43;16.05;;;3.83;;
53263;SDS011;39153;52.680;6.172;2023-01-04T11:48:02;13.05;;;3.20;;
53263;SDS011;39153;52.680;6.172;2023-01-04T11:58:40;6.20;;;1.88;;
53263;SDS011;39153;52.680;6.172;2023-01-04T12:01:18;7.80;;;1.83;;
53263;SDS011;39153;52.680;6.172;2023-01-04T12:03:46;6.13;;;1.73;;
53263;SDS011;39153;52.680;6.172;2023-01-04T12:06:18;9.35;;;2.10;;
53263;SDS011;39153;52.680;6.172;2023-01-04T12:08:48;5.57;;;1.80;;
53263;SDS011;39153;52.680;6.172;2023-01-04T12:11:33;4.90;;;1.67;;
53263;SDS011;39153;52.680;6.172;2023-01-04T12:14:01;4.80;;;1.92;;
53263;SDS011;39153;52.680;6.172;2023-01-04T12:19:15;9.25;;;2.40;;
53263;SDS011;39153;52.680;6.172;2023-01-04T12:21:43;7.95;;;2.50;;
53263;SDS011;39153;52.680;6.172;2023-01-04T12:24:20;6.45;;;1.65;;
53263;SDS011;39153;52.680;6.172;2023-01-04T12:26:51;6.55;;;1.55;;
53263;SDS011;39153;52.680;6.172;2023-01-04T12:31:51;5.38;;;1.48;;
53263;SDS011;39153;52.680;6.172;2023-01-04T12:36:56;8.07;;;1.58;;
53263;SDS011;39153;52.680;6.172;2023-01-04T12:50:05;12.27;;;2.22;;
53263;SDS011;39153;52.680;6.172;2023-01-04T12:52:47;13.10;;;2.33;;
53263;SDS011;39153;52.680;6.172;2023-01-04T12:57:58;12.07;;;3.03;;
53263;SDS011;39153;52.680;6.172;2023-01-04T13:01:19;16.15;;;3.20;;
53263;SDS011;39153;52.680;6.172;2023-01-04T13:05:45;14.43;;;2.70;;
53263;SDS011;39153;52.680;6.172;2023-01-04T13:08:20;15.13;;;2.88;;
53263;SDS011;39153;52.680;6.172;2023-01-04T13:13:22;12.93;;;2.85;;
53263;SDS011;39153;52.680;6.172;2023-01-04T13:18:46;17.20;;;3.10;;
53263;SDS011;39153;52.680;6.172;2023-01-04T13:24:13;13.85;;;2.55;;
53263;SDS011;39153;52.680;6.172;2023-01-04T13:26:44;17.92;;;3.33;;
53263;SDS011;39153;52.680;6.172;2023-01-04T13:37:47;15.90;;;2.97;;
53263;SDS011;39153;52.680;6.172;2023-01-04T13:45:42;18.30;;;3.33;;
53263;SDS011;39153;52.680;6.172;2023-01-04T13:48:22;15.00;;;3.22;;
53263;SDS011;39153;52.680;6.172;2023-01-04T13:53:52;18.55;;;2.92;;
53263;SDS011;39153;52.680;6.172;2023-01-04T13:56:21;18.27;;;3.28;;
53263;SDS011;39153;52.680;6.172;2023-01-04T13:58:48;16.35;;;3.78;;
53263;SDS011;39153;52.680;6.172;2023-01-04T14:01:25;17.55;;;3.45;;
53263;SDS011;39153;52.680;6.172;2023-01-04T14:04:05;15.48;;;3.50;;
53263;SDS011;39153;52.680;6.172;2023-01-04T14:06:40;19.35;;;4.25;;
53263;SDS011;39153;52.680;6.172;2023-01-04T14:17:06;17.90;;;3.08;;
53263;SDS011;39153;52.680;6.172;2023-01-04T14:19:53;15.00;;;3.00;;
53263;SDS011;39153;52.680;6.172;2023-01-04T14:24:48;17.27;;;3.15;;
53263;SDS011;39153;52.680;6.172;2023-01-04T14:32:54;18.65;;;2.88;;
53263;SDS011;39153;52.680;6.172;2023-01-04T14:35:22;16.67;;;3.10;;
53263;SDS011;39153;52.680;6.172;2023-01-04T14:37:50;14.05;;;3.42;;
53263;SDS011;39153;52.680;6.172;2023-01-04T14:40:26;13.70;;;3.10;;
53263;SDS011;39153;52.680;6.172;2023-01-04T14:42:55;18.48;;;3.38;;
53263;SDS011;39153;52.680;6.172;2023-01-04T14:45:21;24.05;;;3.80;;
53263;SDS011;39153;52.680;6.172;2023-01-04T14:47:46;19.33;;;4.47;;
53263;SDS011;39153;52.680;6.172;2023-01-04T14:50:13;21.20;;;3.95;;
53263;SDS011;39153;52.680;6.172;2023-01-04T14:52:40;14.95;;;2.75;;
53263;SDS011;39153;52.680;6.172;2023-01-04T14:55:06;14.68;;;3.70;;
53263;SDS011;39153;52.680;6.172;2023-01-04T14:57:32;16.42;;;3.20;;
53263;SDS011;39153;52.680;6.172;2023-01-04T14:59:59;17.35;;;3.00;;
53263;SDS011;39153;52.680;6.172;2023-01-04T15:02:25;20.35;;;3.17;;
53263;SDS011;39153;52.680;6.172;2023-01-04T15:04:54;15.55;;;3.20;;
53263;SDS011;39153;52.680;6.172;2023-01-04T15:07:32;15.77;;;2.83;;
53263;SDS011;39153;52.680;6.172;2023-01-04T15:10:01;17.83;;;3.58;;
53263;SDS011;39153;52.680;6.172;2023-01-04T15:12:28;15.48;;;3.42;;
53263;SDS011;39153;52.680;6.172;2023-01-04T15:14:54;13.20;;;2.75;;
53263;SDS011;39153;52.680;6.172;2023-01-04T15:17:19;15.95;;;3.22;;
53263;SDS011;39153;52.680;6.172;2023-01-04T15:19:45;18.55;;;3.58;;
53263;SDS011;39153;52.680;6.172;2023-01-04T15:22:11;21.40;;;3.22;;
53263;SDS011;39153;52.680;6.172;2023-01-04T15:24:36;16.45;;;3.10;;
53263;SDS011;39153;52.680;6.172;2023-01-04T15:27:02;20.85;;;3.75;;
53263;SDS011;39153;52.680;6.172;2023-01-04T15:29:28;20.58;;;3.33;;
53263;SDS011;39153;52.680;6.172;2023-01-04T15:31:53;12.23;;;2.85;;
53263;SDS011;39153;52.680;6.172;2023-01-04T15:34:19;18.25;;;3.30;;
53263;SDS011;39153;52.680;6.172;2023-01-04T15:36:49;21.48;;;3.67;;
53263;SDS011;39153;52.680;6.172;2023-01-04T15:39:15;21.20;;;3.53;;
53263;SDS011;39153;52.680;6.172;2023-01-04T15:41:41;15.93;;;2.53;;
53263;SDS011;39153;52.680;6.172;2023-01-04T15:46:52;15.65;;;2.70;;
53263;SDS011;39153;52.680;6.172;2023-01-04T15:49:18;13.77;;;2.92;;
53263;SDS011;39153;52.680;6.172;2023-01-04T15:51:44;15.52;;;3.00;;
53263;SDS011;39153;52.680;6.172;2023-01-04T15:54:10;17.23;;;3.67;;
53263;SDS011;39153;52.680;6.172;2023-01-04T15:56:36;14.18;;;3.00;;
53263;SDS011;39153;52.680;6.172;2023-01-04T15:59:02;18.58;;;2.95;;
53263;SDS011;39153;52.680;6.172;2023-01-04T16:01:27;21.48;;;4.15;;
53263;SDS011;39153;52.680;6.172;2023-01-04T16:03:53;17.42;;;3.63;;
53263;SDS011;39153;52.680;6.172;2023-01-04T16:06:19;20.92;;;3.85;;
53263;SDS011;39153;52.680;6.172;2023-01-04T16:08:47;15.13;;;3.30;;
53263;SDS011;39153;52.680;6.172;2023-01-04T16:11:16;17.77;;;2.95;;
53263;SDS011;39153;52.680;6.172;2023-01-04T16:13:44;22.60;;;3.55;;
53263;SDS011;39153;52.680;6.172;2023-01-04T16:16:11;14.15;;;2.90;;
53263;SDS011;39153;52.680;6.172;2023-01-04T16:18:36;16.25;;;2.90;;
53263;SDS011;39153;52.680;6.172;2023-01-04T16:21:06;17.38;;;3.80;;
53263;SDS011;39153;52.680;6.172;2023-01-04T16:23:33;15.15;;;3.22;;
53263;SDS011;39153;52.680;6.172;2023-01-04T16:26:32;19.55;;;3.65;;
53263;SDS011;39153;52.680;6.172;2023-01-04T16:28:52;17.40;;;3.75;;
53263;SDS011;39153;52.680;6.172;2023-01-04T16:31:19;19.02;;;3.28;;
53263;SDS011;39153;52.680;6.172;2023-01-04T16:33:46;19.17;;;3.47;;
53263;SDS011;39153;52.680;6.172;2023-01-04T16:36:16;17.27;;;3.38;;
53263;SDS011;39153;52.680;6.172;2023-01-04T16:38:42;18.42;;;4.47;;
53263;SDS011;39153;52.680;6.172;2023-01-04T16:41:18;17.92;;;3.40;;
53263;SDS011;39153;52.680;6.172;2023-01-04T16:43:46;18.83;;;3.55;;
53263;SDS011;39153;52.680;6.172;2023-01-04T16:46:18;17.33;;;3.55;;
53263;SDS011;39153;52.680;6.172;2023-01-04T16:48:48;21.25;;;3.45;;
53263;SDS011;39153;52.680;6.172;2023-01-04T16:51:19;18.50;;;3.60;;
53263;SDS011;39153;52.680;6.172;2023-01-04T16:53:45;18.83;;;3.50;;
53263;SDS011;39153;52.680;6.172;2023-01-04T16:56:11;24.40;;;4.57;;
53263;SDS011;39153;52.680;6.172;2023-01-04T16:58:40;15.10;;;3.25;;
53263;SDS011;39153;52.680;6.172;2023-01-04T17:01:19;16.23;;;3.53;;
53263;SDS011;39153;52.680;6.172;2023-01-04T17:03:49;19.08;;;3.22;;
53263;SDS011;39153;52.680;6.172;2023-01-04T17:06:19;17.30;;;3.28;;
53263;SDS011;39153;52.680;6.172;2023-01-04T17:08:46;21.27;;;4.13;;
53263;SDS011;39153;52.680;6.172;2023-01-04T17:11:15;19.15;;;3.65;;
53263;SDS011;39153;52.680;6.172;2023-01-04T17:13:42;18.17;;;3.38;;